createdAt,value
2019-05-13T00:02:17.960Z,1.70
2019-05-13T00:07:23.978Z,1.97
2019-05-13T00:12:29.544Z,1.63
2019-05-13T00:17:34.961Z,1.90
2019-05-13T00:22:40.475Z,1.70
2019-05-13T00:27:46.112Z,1.70
2019-05-13T00:32:51.531Z,1.70
2019-05-13T00:37:56.979Z,1.83
2019-05-13T00:43:03.748Z,1.57
2019-05-13T00:48:09.536Z,1.90
2019-05-13T00:53:15.013Z,2.50
2019-05-13T00:58:20.522Z,1.50
2019-05-13T01:03:28.356Z,1.40
2019-05-13T01:08:33.840Z,1.73
2019-05-13T01:13:39.733Z,1.03
2019-05-13T01:18:45.477Z,1.03
2019-05-13T01:23:50.874Z,1.00
2019-05-13T01:28:56.486Z,1.10
2019-05-13T01:34:03.955Z,1.20
2019-05-13T01:39:09.006Z,1.10
2019-05-13T01:44:15.366Z,1.10
2019-05-13T01:49:20.883Z,1.10
2019-05-13T01:54:26.528Z,1.03
2019-05-13T01:59:33.984Z,0.87
2019-05-13T02:04:39.083Z,0.90
2019-05-13T02:09:44.659Z,1.30
2019-05-13T02:14:50.063Z,1.30
2019-05-13T02:19:55.591Z,1.50
2019-05-13T02:25:01.048Z,1.30
2019-05-13T02:30:06.898Z,2.03
2019-05-13T02:35:13.924Z,2.10
2019-05-13T02:40:22.671Z,2.10
2019-05-13T02:45:26.925Z,2.00
2019-05-13T02:50:33.725Z,2.47
2019-05-13T02:55:43.433Z,2.20
2019-05-13T03:00:48.690Z,1.80
2019-05-13T03:05:54.372Z,2.50
2019-05-13T03:11:02.679Z,2.30
2019-05-13T03:16:24.641Z,2.40
2019-05-13T03:21:32.665Z,2.87
2019-05-13T03:26:37.090Z,2.70
2019-05-13T03:31:46.499Z,2.83
2019-05-13T03:36:55.894Z,2.90
2019-05-13T03:41:58.883Z,3.00
2019-05-13T03:47:05.126Z,4.30
2019-05-13T03:52:13.552Z,3.90
2019-05-13T03:57:17.692Z,3.43
2019-05-13T04:02:23.851Z,3.10
2019-05-13T04:07:32.384Z,3.27
2019-05-13T04:12:36.902Z,3.10
2019-05-13T04:17:42.926Z,2.80
2019-05-13T04:22:48.446Z,4.40
2019-05-13T04:27:54.182Z,3.07
2019-05-13T04:33:02.379Z,3.13
2019-05-13T04:38:10.215Z,2.93
2019-05-13T04:43:14.756Z,6.50
2019-05-13T04:48:22.922Z,3.63
2019-05-13T04:53:27.541Z,3.40
2019-05-13T04:58:35.822Z,3.13
2019-05-13T05:04:03.429Z,2.80
2019-05-13T05:10:10.234Z,3.07
2019-05-13T05:15:24.256Z,4.97
2019-05-13T05:20:51.918Z,3.57
2019-05-13T05:26:21.965Z,4.13
2019-05-13T05:32:02.159Z,3.37
2019-05-13T05:37:55.636Z,3.83
2019-05-13T05:43:04.402Z,5.13
2019-05-13T05:48:11.746Z,6.03
2019-05-13T05:53:21.869Z,5.27
2019-05-13T05:58:31.842Z,5.33
2019-05-13T06:03:38.962Z,4.70
2019-05-13T06:08:44.959Z,5.30
2019-05-13T06:13:54.390Z,4.43
2019-05-13T06:18:57.565Z,4.20
2019-05-13T06:24:03.200Z,4.33
2019-05-13T06:29:11.489Z,5.00
2019-05-13T06:34:17.179Z,4.70
2019-05-13T06:39:22.972Z,5.60
2019-05-13T06:44:28.526Z,4.40
2019-05-13T06:49:42.778Z,4.00
2019-05-13T07:00:34.642Z,3.90
2019-05-13T07:05:42.370Z,2.67
2019-05-13T07:10:52.909Z,3.60
2019-05-13T07:16:01.286Z,2.17
2019-05-13T07:21:06.403Z,3.83
2019-05-13T07:26:23.296Z,3.00
2019-05-13T07:32:42.043Z,2.90
2019-05-13T07:37:51.736Z,2.60
2019-05-13T07:49:39.100Z,1.93
2019-05-13T07:54:52.063Z,3.20
2019-05-13T07:59:57.747Z,2.23
2019-05-13T08:05:13.248Z,2.00
2019-05-13T08:10:22.057Z,2.37
2019-05-13T08:15:27.818Z,2.50
2019-05-13T08:20:34.926Z,3.63
2019-05-13T08:25:42.361Z,3.50
2019-05-13T08:30:51.608Z,2.67
2019-05-13T08:35:58.662Z,2.70
2019-05-13T08:41:02.993Z,2.73
2019-05-13T08:46:08.892Z,2.57
2019-05-13T08:51:14.296Z,2.30
2019-05-13T08:56:21.812Z,4.00
2019-05-13T09:01:26.862Z,2.50
2019-05-13T09:06:32.864Z,2.47
2019-05-13T09:11:38.472Z,2.80
2019-05-13T09:16:44.327Z,2.37
2019-05-13T09:21:52.445Z,2.57
2019-05-13T09:26:57.077Z,2.30
2019-05-13T09:32:03.911Z,2.53
2019-05-13T09:37:11.899Z,3.20
2019-05-13T09:42:16.944Z,2.70
2019-05-13T09:47:22.475Z,3.20
2019-05-13T09:52:27.859Z,2.87
2019-05-13T09:57:33.273Z,2.73
2019-05-13T10:02:38.813Z,2.73
2019-05-13T10:07:44.219Z,3.00
2019-05-13T10:13:07.448Z,2.87
2019-05-13T10:17:57.133Z,3.37
2019-05-13T10:23:02.784Z,3.20
2019-05-13T10:28:08.431Z,2.63
2019-05-13T10:33:13.902Z,1.90
2019-05-13T10:38:22.073Z,3.07
2019-05-13T10:43:31.744Z,2.60
2019-05-13T10:48:34.086Z,2.47
2019-05-13T10:53:42.608Z,2.50
2019-05-13T10:59:06.955Z,2.97
2019-05-13T11:04:15.113Z,2.80
2019-05-13T11:09:34.028Z,2.37
2019-05-13T11:15:06.421Z,2.93
2019-05-13T11:20:14.109Z,2.80
2019-05-13T11:30:42.355Z,2.30
2019-05-13T11:35:59.424Z,2.10
2019-05-13T11:41:06.613Z,2.20
2019-05-13T11:46:14.031Z,2.37
2019-05-13T11:51:33.048Z,2.80
2019-05-13T11:56:46.353Z,2.27
2019-05-13T12:02:03.914Z,3.03
2019-05-13T12:07:23.210Z,2.00
2019-05-13T12:12:33.572Z,1.47
2019-05-13T12:17:53.016Z,1.40
2019-05-13T12:22:57.220Z,1.57
2019-05-13T12:28:03.459Z,1.50
2019-05-13T12:33:13.301Z,1.90
2019-05-13T12:38:16.047Z,2.13
2019-05-13T12:43:24.039Z,1.73
2019-05-13T12:48:28.721Z,2.57
2019-05-13T12:53:34.286Z,1.90
2019-05-13T12:58:40.034Z,2.30
2019-05-13T13:03:45.457Z,3.03
2019-05-13T13:08:51.090Z,1.83
2019-05-13T13:13:59.878Z,1.70
2019-05-13T13:19:04.349Z,2.00
2019-05-13T13:24:11.694Z,1.83
2019-05-13T13:29:16.877Z,1.90
2019-05-13T13:34:25.879Z,1.60
2019-05-13T13:39:29.848Z,2.17
2019-05-13T13:44:36.377Z,2.23
2019-05-13T13:49:43.947Z,2.53
2019-05-13T13:54:58.914Z,2.07
2019-05-13T14:00:21.047Z,1.90
2019-05-13T14:05:05.513Z,3.83
2019-05-13T14:10:11.705Z,2.30
2019-05-13T14:15:24.573Z,2.03
2019-05-13T14:20:38.193Z,1.80
2019-05-13T14:25:43.665Z,1.80
2019-05-13T14:30:51.420Z,2.47
2019-05-13T14:35:57.131Z,1.90
2019-05-13T14:41:04.560Z,1.93
2019-05-13T14:46:14.315Z,2.47
2019-05-13T14:51:21.813Z,1.83
2019-05-13T14:56:26.951Z,2.10
2019-05-13T15:01:32.341Z,2.40
2019-05-13T15:06:38.087Z,1.97
2019-05-13T15:17:17.984Z,1.90
2019-05-13T15:22:24.151Z,2.23
2019-05-13T15:27:31.650Z,2.77
2019-05-13T15:32:42.040Z,2.43
2019-05-13T15:38:52.506Z,5.65
2019-05-13T15:43:54.865Z,2.10
2019-05-13T15:49:01.665Z,3.80
2019-05-13T15:54:08.842Z,2.30
2019-05-13T15:59:14.289Z,2.13
2019-05-13T16:04:21.370Z,1.93
2019-05-13T16:09:27.321Z,2.60
2019-05-13T16:14:32.964Z,2.47
2019-05-13T16:19:38.470Z,2.23
2019-05-13T16:24:45.770Z,2.70
2019-05-13T16:29:51.685Z,2.67
2019-05-13T16:34:57.383Z,2.00
2019-05-13T16:40:03.019Z,2.27
2019-05-13T16:45:18.229Z,3.00
2019-05-13T16:50:23.867Z,2.03
2019-05-13T16:55:29.440Z,1.60
2019-05-13T17:00:35.074Z,2.00
2019-05-13T17:05:52.894Z,2.47
2019-05-13T17:11:17.301Z,2.33
2019-05-13T17:16:22.687Z,2.40
2019-05-13T17:21:28.073Z,2.20
2019-05-13T17:26:33.466Z,2.27
2019-05-13T17:31:59.026Z,2.07
2019-05-13T17:37:07.246Z,3.33
2019-05-13T17:42:12.801Z,3.70
2019-05-13T17:47:18.179Z,2.93
2019-05-13T17:52:24.904Z,2.40
2019-05-13T17:57:32.060Z,2.53
2019-05-13T18:02:37.913Z,2.30
2019-05-13T18:07:43.397Z,3.03
2019-05-13T18:12:50.996Z,2.60
2019-05-13T18:17:56.034Z,2.70
2019-05-13T18:23:08.844Z,3.37
2019-05-13T18:28:27.718Z,3.10
2019-05-13T18:33:25.812Z,2.83
2019-05-13T18:38:36.309Z,3.70
2019-05-13T18:43:41.818Z,4.17
2019-05-13T18:48:58.527Z,3.40
2019-05-13T18:54:21.555Z,2.93
2019-05-13T18:59:32.176Z,3.10
2019-05-13T19:05:11.858Z,2.57
2019-05-13T19:10:53.922Z,3.00
2019-05-13T19:16:02.628Z,3.00
2019-05-13T19:21:08.471Z,2.73
2019-05-13T19:26:14.305Z,3.27
2019-05-13T19:31:21.937Z,3.10
2019-05-13T19:36:26.826Z,3.43
2019-05-13T19:41:42.365Z,8.30
2019-05-13T19:46:48.184Z,3.63
2019-05-13T19:51:53.706Z,6.83
2019-05-13T19:57:01.397Z,3.27
2019-05-13T20:02:07.898Z,3.40
2019-05-13T20:07:13.860Z,3.60
2019-05-13T20:12:21.196Z,3.67
2019-05-13T20:17:27.446Z,3.00
2019-05-13T20:22:33.819Z,2.80
2019-05-13T20:27:53.223Z,4.03
2019-05-13T20:33:02.314Z,3.30
2019-05-13T20:38:08.597Z,2.40
2019-05-13T20:43:14.851Z,2.50
2019-05-13T20:48:24.803Z,2.27
2019-05-13T20:53:31.105Z,2.70
2019-05-13T20:58:37.398Z,2.70
2019-05-13T21:03:42.955Z,2.70
2019-05-13T21:08:55.263Z,2.40
2019-05-13T21:14:01.213Z,2.97
2019-05-13T21:19:09.393Z,2.50
2019-05-13T21:24:14.810Z,2.60
2019-05-13T21:29:21.632Z,2.37
2019-05-13T21:34:27.285Z,2.30
2019-05-13T21:39:32.722Z,2.40
2019-05-13T21:44:38.126Z,2.33
2019-05-13T21:49:43.946Z,2.40
2019-05-13T21:54:51.498Z,2.27
2019-05-13T21:59:56.574Z,2.20
2019-05-13T22:05:02.000Z,2.70
2019-05-13T22:10:08.098Z,3.33
2019-05-13T22:15:13.963Z,2.60
2019-05-13T22:20:21.327Z,2.30
2019-05-13T22:25:26.457Z,2.60
2019-05-13T22:30:33.535Z,2.30
2019-05-13T22:35:42.662Z,2.80
2019-05-13T22:40:48.218Z,2.20
2019-05-13T22:45:54.001Z,2.40
2019-05-13T22:51:02.123Z,2.33
2019-05-13T22:56:07.602Z,2.60
2019-05-13T23:01:13.936Z,2.57
2019-05-13T23:06:21.462Z,2.40
2019-05-13T23:11:26.405Z,2.97
2019-05-13T23:16:31.939Z,2.23
2019-05-13T23:21:37.349Z,2.67
2019-05-13T23:26:43.364Z,2.40
2019-05-13T23:31:48.998Z,3.57
2019-05-13T23:36:54.430Z,4.47
2019-05-13T23:42:01.422Z,3.67
2019-05-13T23:47:07.127Z,3.23
2019-05-13T23:52:12.603Z,2.60
2019-05-13T23:57:18.095Z,2.73
